sensor_id;sensor_type;location;lat;lon;timestamp;temperature;humidity
29403;DHT22;16382;59.942;30.472;2023-03-20T00:00:55;6.30;99.90
29403;DHT22;16382;59.942;30.472;2023-03-20T00:03:24;6.20;99.90
29403;DHT22;16382;59.942;30.472;2023-03-20T00:05:52;6.20;99.90
29403;DHT22;16382;59.942;30.472;2023-03-20T00:08:19;6.20;99.90
29403;DHT22;16382;59.942;30.472;2023-03-20T00:10:47;6.20;99.90
29403;DHT22;16382;59.942;30.472;2023-03-20T00:13:22;6.20;99.90
29403;DHT22;16382;59.942;30.472;2023-03-20T00:15:53;6.20;99.90
29403;DHT22;16382;59.942;30.472;2023-03-20T00:18:21;6.20;99.90
29403;DHT22;16382;59.942;30.472;2023-03-20T00:20:51;6.30;99.90
29403;DHT22;16382;59.942;30.472;2023-03-20T00:23:19;6.20;99.90
29403;DHT22;16382;59.942;30.472;2023-03-20T00:25:47;6.20;99.90
29403;DHT22;16382;59.942;30.472;2023-03-20T00:28:40;6.20;99.90
29403;DHT22;16382;59.942;30.472;2023-03-20T00:31:17;6.20;99.90
29403;DHT22;16382;59.942;30.472;2023-03-20T00:33:54;6.20;99.90
29403;DHT22;16382;59.942;30.472;2023-03-20T00:36:23;6.20;99.90
29403;DHT22;16382;59.942;30.472;2023-03-20T00:38:51;6.10;99.90
29403;DHT22;16382;59.942;30.472;2023-03-20T00:41:22;6.10;99.90
29403;DHT22;16382;59.942;30.472;2023-03-20T00:43:53;6.20;99.90
29403;DHT22;16382;59.942;30.472;2023-03-20T00:46:22;6.20;99.90
29403;DHT22;16382;59.942;30.472;2023-03-20T00:48:50;6.10;99.90
29403;DHT22;16382;59.942;30.472;2023-03-20T00:51:19;6.10;99.90
29403;DHT22;16382;59.942;30.472;2023-03-20T00:53:46;6.10;99.90
29403;DHT22;16382;59.942;30.472;2023-03-20T00:56:28;6.10;99.90
29403;DHT22;16382;59.942;30.472;2023-03-20T00:58:58;6.10;99.90
29403;DHT22;16382;59.942;30.472;2023-03-20T01:01:27;6.10;99.90
29403;DHT22;16382;59.942;30.472;2023-03-20T01:03:56;6.10;99.90
29403;DHT22;16382;59.942;30.472;2023-03-20T01:06:24;6.10;99.90
29403;DHT22;16382;59.942;30.472;2023-03-20T01:08:53;6.10;99.90
29403;DHT22;16382;59.942;30.472;2023-03-20T01:11:24;6.10;99.90
29403;DHT22;16382;59.942;30.472;2023-03-20T01:13:52;6.10;99.90
29403;DHT22;16382;59.942;30.472;2023-03-20T01:16:21;6.00;99.90
29403;DHT22;16382;59.942;30.472;2023-03-20T01:18:50;6.10;99.90
29403;DHT22;16382;59.942;30.472;2023-03-20T01:21:20;6.10;99.90
29403;DHT22;16382;59.942;30.472;2023-03-20T01:23:50;6.10;99.90
29403;DHT22;16382;59.942;30.472;2023-03-20T01:26:21;6.20;99.90
29403;DHT22;16382;59.942;30.472;2023-03-20T01:28:51;6.10;99.90
29403;DHT22;16382;59.942;30.472;2023-03-20T01:31:19;6.20;99.90
29403;DHT22;16382;59.942;30.472;2023-03-20T01:33:46;6.20;99.90
29403;DHT22;16382;59.942;30.472;2023-03-20T01:36:16;6.20;99.90
29403;DHT22;16382;59.942;30.472;2023-03-20T01:38:53;6.20;99.90
29403;DHT22;16382;59.942;30.472;2023-03-20T01:41:22;6.20;99.90
29403;DHT22;16382;59.942;30.472;2023-03-20T01:43:51;6.20;99.90
29403;DHT22;16382;59.942;30.472;2023-03-20T01:46:23;6.20;99.90
29403;DHT22;16382;59.942;30.472;2023-03-20T01:49:00;6.20;99.90
29403;DHT22;16382;59.942;30.472;2023-03-20T01:51:35;6.20;99.90
29403;DHT22;16382;59.942;30.472;2023-03-20T01:54:12;6.10;99.90
29403;DHT22;16382;59.942;30.472;2023-03-20T01:56:51;6.10;99.90
29403;DHT22;16382;59.942;30.472;2023-03-20T01:59:25;6.10;99.90
29403;DHT22;16382;59.942;30.472;2023-03-20T02:01:55;6.10;99.90
29403;DHT22;16382;59.942;30.472;2023-03-20T02:04:28;6.10;99.90
29403;DHT22;16382;59.942;30.472;2023-03-20T02:07:06;6.10;99.90
29403;DHT22;16382;59.942;30.472;2023-03-20T02:09:45;6.00;99.90
29403;DHT22;16382;59.942;30.472;2023-03-20T02:12:19;6.00;99.90
29403;DHT22;16382;59.942;30.472;2023-03-20T02:14:48;6.10;99.90
29403;DHT22;16382;59.942;30.472;2023-03-20T02:17:51;6.10;99.90
29403;DHT22;16382;59.942;30.472;2023-03-20T02:20:28;6.00;99.90
29403;DHT22;16382;59.942;30.472;2023-03-20T02:26:33;6.10;99.90
29403;DHT22;16382;59.942;30.472;2023-03-20T02:38:53;6.00;99.90
29403;DHT22;16382;59.942;30.472;2023-03-20T02:41:29;6.00;99.90
29403;DHT22;16382;59.942;30.472;2023-03-20T02:44:02;6.00;99.90
29403;DHT22;16382;59.942;30.472;2023-03-20T02:46:42;6.00;99.90
29403;DHT22;16382;59.942;30.472;2023-03-20T02:49:32;6.00;99.90
29403;DHT22;16382;59.942;30.472;2023-03-20T02:52:13;5.90;99.90
29403;DHT22;16382;59.942;30.472;2023-03-20T02:54:53;6.00;99.90
29403;DHT22;16382;59.942;30.472;2023-03-20T02:57:32;6.00;99.90
29403;DHT22;16382;59.942;30.472;2023-03-20T03:00:11;5.90;99.90
29403;DHT22;16382;59.942;30.472;2023-03-20T03:02:47;5.90;99.90
29403;DHT22;16382;59.942;30.472;2023-03-20T03:05:21;5.80;99.90
29403;DHT22;16382;59.942;30.472;2023-03-20T03:07:52;5.80;99.90
29403;DHT22;16382;59.942;30.472;2023-03-20T03:10:27;5.70;99.90
29403;DHT22;16382;59.942;30.472;2023-03-20T03:12:59;5.60;99.90
29403;DHT22;16382;59.942;30.472;2023-03-20T03:15:32;5.50;99.90
29403;DHT22;16382;59.942;30.472;2023-03-20T03:18:02;5.40;99.90
29403;DHT22;16382;59.942;30.472;2023-03-20T03:20:34;5.30;99.90
29403;DHT22;16382;59.942;30.472;2023-03-20T03:23:04;5.20;99.90
29403;DHT22;16382;59.942;30.472;2023-03-20T03:25:36;5.10;99.90
29403;DHT22;16382;59.942;30.472;2023-03-20T03:28:08;5.00;99.90
29403;DHT22;16382;59.942;30.472;2023-03-20T03:30:48;4.90;99.90
29403;DHT22;16382;59.942;30.472;2023-03-20T03:33:23;4.80;99.90
29403;DHT22;16382;59.942;30.472;2023-03-20T03:35:55;4.70;99.90
29403;DHT22;16382;59.942;30.472;2023-03-20T03:38:32;4.70;99.90
29403;DHT22;16382;59.942;30.472;2023-03-20T03:41:16;4.70;99.90
29403;DHT22;16382;59.942;30.472;2023-03-20T03:43:51;4.60;99.90
29403;DHT22;16382;59.942;30.472;2023-03-20T03:46:26;4.60;99.90
29403;DHT22;16382;59.942;30.472;2023-03-20T03:48:59;4.50;99.90
29403;DHT22;16382;59.942;30.472;2023-03-20T03:51:30;4.40;99.90
29403;DHT22;16382;59.942;30.472;2023-03-20T03:54:07;4.40;99.90
29403;DHT22;16382;59.942;30.472;2023-03-20T03:56:40;4.30;99.90
29403;DHT22;16382;59.942;30.472;2023-03-20T04:01:46;4.20;99.90
29403;DHT22;16382;59.942;30.472;2023-03-20T04:04:17;4.20;99.90
29403;DHT22;16382;59.942;30.472;2023-03-20T04:06:55;4.20;99.90
29403;DHT22;16382;59.942;30.472;2023-03-20T04:09:23;4.20;99.90
29403;DHT22;16382;59.942;30.472;2023-03-20T04:11:52;4.20;99.90
29403;DHT22;16382;59.942;30.472;2023-03-20T04:14:20;4.30;99.90
29403;DHT22;16382;59.942;30.472;2023-03-20T04:16:48;4.20;99.90
29403;DHT22;16382;59.942;30.472;2023-03-20T04:19:15;4.30;99.90
29403;DHT22;16382;59.942;30.472;2023-03-20T04:21:46;4.40;99.90
29403;DHT22;16382;59.942;30.472;2023-03-20T04:24:14;4.40;99.90
29403;DHT22;16382;59.942;30.472;2023-03-20T04:26:42;4.40;99.90
29403;DHT22;16382;59.942;30.472;2023-03-20T04:29:11;4.40;99.90
29403;DHT22;16382;59.942;30.472;2023-03-20T04:31:50;4.40;99.90
29403;DHT22;16382;59.942;30.472;2023-03-20T04:34:32;4.40;99.90
29403;DHT22;16382;59.942;30.472;2023-03-20T04:37:21;4.40;99.90
29403;DHT22;16382;59.942;30.472;2023-03-20T04:40:09;4.50;99.90
29403;DHT22;16382;59.942;30.472;2023-03-20T04:42:41;4.50;99.90
29403;DHT22;16382;59.942;30.472;2023-03-20T04:45:13;4.50;99.90
29403;DHT22;16382;59.942;30.472;2023-03-20T04:47:42;4.50;99.90
29403;DHT22;16382;59.942;30.472;2023-03-20T04:50:10;4.60;99.90
29403;DHT22;16382;59.942;30.472;2023-03-20T04:52:39;4.60;99.90
29403;DHT22;16382;59.942;30.472;2023-03-20T04:55:07;4.60;99.90
29403;DHT22;16382;59.942;30.472;2023-03-20T04:57:35;4.60;99.90
29403;DHT22;16382;59.942;30.472;2023-03-20T05:00:05;4.60;99.90
29403;DHT22;16382;59.942;30.472;2023-03-20T05:02:35;4.70;99.90
29403;DHT22;16382;59.942;30.472;2023-03-20T05:05:02;4.70;99.90
29403;DHT22;16382;59.942;30.472;2023-03-20T05:07:34;4.80;99.90
29403;DHT22;16382;59.942;30.472;2023-03-20T05:10:07;4.80;99.90
29403;DHT22;16382;59.942;30.472;2023-03-20T05:12:49;4.80;99.90
29403;DHT22;16382;59.942;30.472;2023-03-20T05:15:22;4.80;99.90
29403;DHT22;16382;59.942;30.472;2023-03-20T05:18:09;4.80;99.90
29403;DHT22;16382;59.942;30.472;2023-03-20T05:20:55;4.90;99.90
29403;DHT22;16382;59.942;30.472;2023-03-20T05:23:58;4.90;99.90
29403;DHT22;16382;59.942;30.472;2023-03-20T05:26:45;4.90;99.90
29403;DHT22;16382;59.942;30.472;2023-03-20T05:29:35;5.00;99.90
29403;DHT22;16382;59.942;30.472;2023-03-20T05:32:33;5.00;99.90
29403;DHT22;16382;59.942;30.472;2023-03-20T05:35:29;5.00;99.90
29403;DHT22;16382;59.942;30.472;2023-03-20T05:38:03;5.10;99.90
29403;DHT22;16382;59.942;30.472;2023-03-20T05:40:48;5.10;99.90
29403;DHT22;16382;59.942;30.472;2023-03-20T05:43:26;5.20;99.90
29403;DHT22;16382;59.942;30.472;2023-03-20T05:46:17;5.30;99.90
29403;DHT22;16382;59.942;30.472;2023-03-20T05:49:00;5.30;99.90
29403;DHT22;16382;59.942;30.472;2023-03-20T05:51:42;5.30;99.90
29403;DHT22;16382;59.942;30.472;2023-03-20T05:54:21;5.40;99.90
29403;DHT22;16382;59.942;30.472;2023-03-20T05:56:59;5.40;99.90
29403;DHT22;16382;59.942;30.472;2023-03-20T05:59:45;5.40;99.90
29403;DHT22;16382;59.942;30.472;2023-03-20T06:02:33;5.50;99.90
29403;DHT22;16382;59.942;30.472;2023-03-20T06:05:11;5.60;99.90
29403;DHT22;16382;59.942;30.472;2023-03-20T06:07:48;5.70;99.90
29403;DHT22;16382;59.942;30.472;2023-03-20T06:10:16;5.80;99.90
29403;DHT22;16382;59.942;30.472;2023-03-20T06:12:45;5.90;99.90
29403;DHT22;16382;59.942;30.472;2023-03-20T06:15:14;6.00;99.90
29403;DHT22;16382;59.942;30.472;2023-03-20T06:17:51;6.10;99.90
29403;DHT22;16382;59.942;30.472;2023-03-20T06:20:19;6.20;99.90
29403;DHT22;16382;59.942;30.472;2023-03-20T06:22:53;6.40;99.90
29403;DHT22;16382;59.942;30.472;2023-03-20T06:25:22;6.70;99.90
29403;DHT22;16382;59.942;30.472;2023-03-20T06:27:49;6.90;99.90
29403;DHT22;16382;59.942;30.472;2023-03-20T06:30:19;7.20;99.90
29403;DHT22;16382;59.942;30.472;2023-03-20T06:32:48;7.50;99.90
29403;DHT22;16382;59.942;30.472;2023-03-20T06:35:17;7.70;99.90
29403;DHT22;16382;59.942;30.472;2023-03-20T06:37:49;7.90;99.90
29403;DHT22;16382;59.942;30.472;2023-03-20T06:40:21;8.00;99.90
29403;DHT22;16382;59.942;30.472;2023-03-20T06:42:49;8.00;99.90
29403;DHT22;16382;59.942;30.472;2023-03-20T06:45:17;8.00;99.90
29403;DHT22;16382;59.942;30.472;2023-03-20T06:47:56;8.00;99.90
29403;DHT22;16382;59.942;30.472;2023-03-20T06:50:23;8.10;99.90
29403;DHT22;16382;59.942;30.472;2023-03-20T06:52:53;8.20;99.90
29403;DHT22;16382;59.942;30.472;2023-03-20T06:55:42;8.30;99.90
29403;DHT22;16382;59.942;30.472;2023-03-20T06:58:09;8.40;99.90
29403;DHT22;16382;59.942;30.472;2023-03-20T07:00:37;8.50;99.90
29403;DHT22;16382;59.942;30.472;2023-03-20T07:03:08;8.60;99.90
29403;DHT22;16382;59.942;30.472;2023-03-20T07:05:37;8.70;99.90
29403;DHT22;16382;59.942;30.472;2023-03-20T07:08:08;8.70;99.90
29403;DHT22;16382;59.942;30.472;2023-03-20T07:10:37;8.60;99.90
29403;DHT22;16382;59.942;30.472;2023-03-20T07:13:05;8.60;99.90
29403;DHT22;16382;59.942;30.472;2023-03-20T07:15:35;8.60;99.90
29403;DHT22;16382;59.942;30.472;2023-03-20T07:18:04;8.50;99.90
29403;DHT22;16382;59.942;30.472;2023-03-20T07:20:32;8.50;99.90
29403;DHT22;16382;59.942;30.472;2023-03-20T07:23:01;8.40;99.90
29403;DHT22;16382;59.942;30.472;2023-03-20T07:25:33;8.40;99.90
29403;DHT22;16382;59.942;30.472;2023-03-20T07:28:01;8.60;99.90
29403;DHT22;16382;59.942;30.472;2023-03-20T07:30:28;8.90;99.90
29403;DHT22;16382;59.942;30.472;2023-03-20T07:32:56;9.00;99.90
29403;DHT22;16382;59.942;30.472;2023-03-20T07:35:28;9.20;99.90
29403;DHT22;16382;59.942;30.472;2023-03-20T07:37:56;9.10;99.90
29403;DHT22;16382;59.942;30.472;2023-03-20T07:40:24;8.80;99.90
29403;DHT22;16382;59.942;30.472;2023-03-20T07:43:03;8.60;99.90
29403;DHT22;16382;59.942;30.472;2023-03-20T07:46:01;8.60;99.90
29403;DHT22;16382;59.942;30.472;2023-03-20T07:48:28;8.50;99.90
29403;DHT22;16382;59.942;30.472;2023-03-20T07:50:56;8.40;99.90
29403;DHT22;16382;59.942;30.472;2023-03-20T07:53:23;8.50;99.90
29403;DHT22;16382;59.942;30.472;2023-03-20T07:55:51;8.50;99.90
29403;DHT22;16382;59.942;30.472;2023-03-20T07:58:20;8.50;99.90
29403;DHT22;16382;59.942;30.472;2023-03-20T08:00:47;8.50;99.90
29403;DHT22;16382;59.942;30.472;2023-03-20T08:03:14;8.40;99.90
29403;DHT22;16382;59.942;30.472;2023-03-20T08:05:42;8.50;99.90
29403;DHT22;16382;59.942;30.472;2023-03-20T08:08:10;8.50;99.90
29403;DHT22;16382;59.942;30.472;2023-03-20T08:10:37;8.40;99.90
29403;DHT22;16382;59.942;30.472;2023-03-20T08:13:04;8.50;99.90
29403;DHT22;16382;59.942;30.472;2023-03-20T08:15:33;8.50;99.90
29403;DHT22;16382;59.942;30.472;2023-03-20T08:18:01;8.50;99.90
29403;DHT22;16382;59.942;30.472;2023-03-20T08:20:28;8.50;99.90
29403;DHT22;16382;59.942;30.472;2023-03-20T08:22:56;8.50;99.90
29403;DHT22;16382;59.942;30.472;2023-03-20T08:25:24;8.60;99.90
29403;DHT22;16382;59.942;30.472;2023-03-20T08:27:51;8.80;99.90
29403;DHT22;16382;59.942;30.472;2023-03-20T08:30:19;9.00;99.90
29403;DHT22;16382;59.942;30.472;2023-03-20T08:32:48;8.90;99.90
29403;DHT22;16382;59.942;30.472;2023-03-20T08:35:15;8.90;99.90
29403;DHT22;16382;59.942;30.472;2023-03-20T08:37:43;8.80;99.90
29403;DHT22;16382;59.942;30.472;2023-03-20T08:40:11;8.80;99.90
29403;DHT22;16382;59.942;30.472;2023-03-20T08:42:39;8.70;99.90
29403;DHT22;16382;59.942;30.472;2023-03-20T08:45:07;8.70;99.90
29403;DHT22;16382;59.942;30.472;2023-03-20T08:47:35;8.60;99.90
29403;DHT22;16382;59.942;30.472;2023-03-20T08:50:06;8.60;99.90
29403;DHT22;16382;59.942;30.472;2023-03-20T08:52:34;8.60;99.90
29403;DHT22;16382;59.942;30.472;2023-03-20T08:55:02;8.60;99.90
29403;DHT22;16382;59.942;30.472;2023-03-20T08:57:29;8.70;99.90
29403;DHT22;16382;59.942;30.472;2023-03-20T08:59:57;8.90;99.90
29403;DHT22;16382;59.942;30.472;2023-03-20T09:02:24;9.00;99.90
29403;DHT22;16382;59.942;30.472;2023-03-20T09:04:52;9.10;99.90
29403;DHT22;16382;59.942;30.472;2023-03-20T09:07:21;9.20;99.90
29403;DHT22;16382;59.942;30.472;2023-03-20T09:09:49;9.30;99.90
29403;DHT22;16382;59.942;30.472;2023-03-20T09:12:17;9.50;99.90
29403;DHT22;16382;59.942;30.472;2023-03-20T09:14:45;9.80;99.90
29403;DHT22;16382;59.942;30.472;2023-03-20T09:17:12;10.40;99.90
29403;DHT22;16382;59.942;30.472;2023-03-20T09:19:40;11.90;99.90
29403;DHT22;16382;59.942;30.472;2023-03-20T09:22:11;13.70;99.90
29403;DHT22;16382;59.942;30.472;2023-03-20T09:24:41;15.60;99.90
29403;DHT22;16382;59.942;30.472;2023-03-20T09:27:09;16.30;92.20
29403;DHT22;16382;59.942;30.472;2023-03-20T09:29:38;16.30;90.90
29403;DHT22;16382;59.942;30.472;2023-03-20T09:32:06;16.10;88.70
29403;DHT22;16382;59.942;30.472;2023-03-20T09:34:34;15.80;88.80
29403;DHT22;16382;59.942;30.472;2023-03-20T09:37:01;15.30;90.30
29403;DHT22;16382;59.942;30.472;2023-03-20T09:39:29;14.70;90.70
29403;DHT22;16382;59.942;30.472;2023-03-20T09:42:01;14.20;92.50
29403;DHT22;16382;59.942;30.472;2023-03-20T09:44:46;14.10;93.20
29403;DHT22;16382;59.942;30.472;2023-03-20T09:47:21;13.80;93.80
29403;DHT22;16382;59.942;30.472;2023-03-20T09:50:06;14.00;94.80
29403;DHT22;16382;59.942;30.472;2023-03-20T09:52:51;14.30;93.60
29403;DHT22;16382;59.942;30.472;2023-03-20T09:55:24;14.60;93.70
29403;DHT22;16382;59.942;30.472;2023-03-20T09:58:03;15.10;93.10
29403;DHT22;16382;59.942;30.472;2023-03-20T10:00:35;15.80;90.40
29403;DHT22;16382;59.942;30.472;2023-03-20T10:03:04;16.20;87.60
29403;DHT22;16382;59.942;30.472;2023-03-20T10:05:36;16.60;85.80
29403;DHT22;16382;59.942;30.472;2023-03-20T10:08:08;16.80;83.80
29403;DHT22;16382;59.942;30.472;2023-03-20T10:10:47;17.10;81.90
29403;DHT22;16382;59.942;30.472;2023-03-20T10:13:57;17.60;78.40
29403;DHT22;16382;59.942;30.472;2023-03-20T10:16:38;18.00;78.40
29403;DHT22;16382;59.942;30.472;2023-03-20T10:19:19;18.80;73.50
29403;DHT22;16382;59.942;30.472;2023-03-20T10:21:58;18.90;70.90
29403;DHT22;16382;59.942;30.472;2023-03-20T10:24:32;18.90;71.70
29403;DHT22;16382;59.942;30.472;2023-03-20T10:27:09;19.80;68.80
29403;DHT22;16382;59.942;30.472;2023-03-20T10:29:51;20.30;65.80
29403;DHT22;16382;59.942;30.472;2023-03-20T10:32:25;21.00;63.80
29403;DHT22;16382;59.942;30.472;2023-03-20T10:35:10;21.20;62.00
29403;DHT22;16382;59.942;30.472;2023-03-20T10:37:57;20.80;61.30
29403;DHT22;16382;59.942;30.472;2023-03-20T10:40:34;20.30;62.10
29403;DHT22;16382;59.942;30.472;2023-03-20T10:43:13;20.20;64.10
29403;DHT22;16382;59.942;30.472;2023-03-20T10:45:46;20.60;63.40
29403;DHT22;16382;59.942;30.472;2023-03-20T10:48:19;21.10;60.70
29403;DHT22;16382;59.942;30.472;2023-03-20T10:50:54;21.20;59.60
29403;DHT22;16382;59.942;30.472;2023-03-20T10:53:28;20.90;60.50
29403;DHT22;16382;59.942;30.472;2023-03-20T10:56:01;21.10;59.60
29403;DHT22;16382;59.942;30.472;2023-03-20T10:58:34;21.20;58.90
29403;DHT22;16382;59.942;30.472;2023-03-20T11:01:06;21.00;59.40
29403;DHT22;16382;59.942;30.472;2023-03-20T11:03:34;21.30;58.90
29403;DHT22;16382;59.942;30.472;2023-03-20T11:06:10;21.40;59.10
29403;DHT22;16382;59.942;30.472;2023-03-20T11:08:42;21.30;59.00
29403;DHT22;16382;59.942;30.472;2023-03-20T11:11:21;21.10;59.00
29403;DHT22;16382;59.942;30.472;2023-03-20T11:13:49;20.70;59.10
29403;DHT22;16382;59.942;30.472;2023-03-20T11:16:21;20.30;59.60
29403;DHT22;16382;59.942;30.472;2023-03-20T11:18:50;19.90;60.30
29403;DHT22;16382;59.942;30.472;2023-03-20T11:21:25;18.90;62.60
29403;DHT22;16382;59.942;30.472;2023-03-20T11:23:54;18.60;65.00
29403;DHT22;16382;59.942;30.472;2023-03-20T11:26:36;18.80;65.60
29403;DHT22;16382;59.942;30.472;2023-03-20T11:29:06;19.20;65.20
29403;DHT22;16382;59.942;30.472;2023-03-20T11:31:39;19.80;65.00
29403;DHT22;16382;59.942;30.472;2023-03-20T11:34:21;20.60;61.30
29403;DHT22;16382;59.942;30.472;2023-03-20T11:36:56;21.20;59.80
29403;DHT22;16382;59.942;30.472;2023-03-20T11:39:28;21.70;59.10
29403;DHT22;16382;59.942;30.472;2023-03-20T11:41:59;22.40;57.90
29403;DHT22;16382;59.942;30.472;2023-03-20T11:44:31;22.90;56.50
29403;DHT22;16382;59.942;30.472;2023-03-20T11:47:05;23.30;55.90
29403;DHT22;16382;59.942;30.472;2023-03-20T11:49:45;23.90;54.80
29403;DHT22;16382;59.942;30.472;2023-03-20T11:52:23;24.00;54.10
29403;DHT22;16382;59.942;30.472;2023-03-20T11:54:55;24.20;53.20
29403;DHT22;16382;59.942;30.472;2023-03-20T11:57:32;24.10;53.80
29403;DHT22;16382;59.942;30.472;2023-03-20T12:00:05;24.20;53.70
29403;DHT22;16382;59.942;30.472;2023-03-20T12:02:48;24.40;52.20
29403;DHT22;16382;59.942;30.472;2023-03-20T12:05:29;23.90;52.70
29403;DHT22;16382;59.942;30.472;2023-03-20T12:08:01;23.20;53.10
29403;DHT22;16382;59.942;30.472;2023-03-20T12:10:35;21.90;55.10
29403;DHT22;16382;59.942;30.472;2023-03-20T12:13:10;20.70;57.30
29403;DHT22;16382;59.942;30.472;2023-03-20T12:15:43;19.50;59.50
29403;DHT22;16382;59.942;30.472;2023-03-20T12:18:20;18.50;61.80
29403;DHT22;16382;59.942;30.472;2023-03-20T12:21:05;18.10;64.30
29403;DHT22;16382;59.942;30.472;2023-03-20T12:23:37;18.20;64.60
29403;DHT22;16382;59.942;30.472;2023-03-20T12:26:11;18.30;64.60
29403;DHT22;16382;59.942;30.472;2023-03-20T12:28:46;18.50;64.40
29403;DHT22;16382;59.942;30.472;2023-03-20T12:31:24;18.50;64.80
29403;DHT22;16382;59.942;30.472;2023-03-20T12:33:58;19.70;63.00
29403;DHT22;16382;59.942;30.472;2023-03-20T12:36:31;20.40;61.00
29403;DHT22;16382;59.942;30.472;2023-03-20T12:39:01;20.10;60.20
29403;DHT22;16382;59.942;30.472;2023-03-20T12:41:37;19.50;61.30
29403;DHT22;16382;59.942;30.472;2023-03-20T12:44:14;18.70;63.90
29403;DHT22;16382;59.942;30.472;2023-03-20T12:46:50;18.20;65.20
29403;DHT22;16382;59.942;30.472;2023-03-20T12:49:35;17.70;65.80
29403;DHT22;16382;59.942;30.472;2023-03-20T12:52:14;16.90;68.80
29403;DHT22;16382;59.942;30.472;2023-03-20T12:55:03;16.20;70.30
29403;DHT22;16382;59.942;30.472;2023-03-20T12:57:46;15.50;72.90
29403;DHT22;16382;59.942;30.472;2023-03-20T13:00:23;15.20;74.00
29403;DHT22;16382;59.942;30.472;2023-03-20T13:03:12;15.10;75.50
29403;DHT22;16382;59.942;30.472;2023-03-20T13:06:03;15.20;75.40
29403;DHT22;16382;59.942;30.472;2023-03-20T13:08:52;15.00;75.80
29403;DHT22;16382;59.942;30.472;2023-03-20T13:11:41;14.80;76.70
29403;DHT22;16382;59.942;30.472;2023-03-20T13:14:15;14.40;77.80
29403;DHT22;16382;59.942;30.472;2023-03-20T13:16:52;14.10;80.20
29403;DHT22;16382;59.942;30.472;2023-03-20T13:19:26;13.80;80.80
29403;DHT22;16382;59.942;30.472;2023-03-20T13:22:04;13.60;82.10
29403;DHT22;16382;59.942;30.472;2023-03-20T13:24:38;13.40;83.80
29403;DHT22;16382;59.942;30.472;2023-03-20T13:27:17;13.40;84.80
29403;DHT22;16382;59.942;30.472;2023-03-20T13:29:52;13.30;85.60
29403;DHT22;16382;59.942;30.472;2023-03-20T13:32:33;13.30;86.90
29403;DHT22;16382;59.942;30.472;2023-03-20T13:35:20;13.30;87.80
29403;DHT22;16382;59.942;30.472;2023-03-20T13:37:58;13.30;89.20
29403;DHT22;16382;59.942;30.472;2023-03-20T13:40:30;13.40;89.80
29403;DHT22;16382;59.942;30.472;2023-03-20T13:43:04;13.60;89.70
29403;DHT22;16382;59.942;30.472;2023-03-20T13:45:41;13.90;89.70
29403;DHT22;16382;59.942;30.472;2023-03-20T13:48:22;14.10;89.20
29403;DHT22;16382;59.942;30.472;2023-03-20T13:50:59;14.40;88.40
29403;DHT22;16382;59.942;30.472;2023-03-20T13:53:43;14.50;87.90
29403;DHT22;16382;59.942;30.472;2023-03-20T13:56:27;14.50;87.50
29403;DHT22;16382;59.942;30.472;2023-03-20T14:02:19;14.60;88.20
29403;DHT22;16382;59.942;30.472;2023-03-20T14:05:02;14.90;87.00
29403;DHT22;16382;59.942;30.472;2023-03-20T14:07:34;15.20;86.10
29403;DHT22;16382;59.942;30.472;2023-03-20T14:10:38;15.30;85.10
29403;DHT22;16382;59.942;30.472;2023-03-20T14:13:13;15.40;84.60
29403;DHT22;16382;59.942;30.472;2023-03-20T14:15:48;15.50;84.60
29403;DHT22;16382;59.942;30.472;2023-03-20T14:18:21;15.90;84.30
29403;DHT22;16382;59.942;30.472;2023-03-20T14:20:56;16.20;81.50
29403;DHT22;16382;59.942;30.472;2023-03-20T14:23:33;15.70;81.90
29403;DHT22;16382;59.942;30.472;2023-03-20T14:26:16;14.70;85.20
29403;DHT22;16382;59.942;30.472;2023-03-20T14:28:58;13.90;89.90
29403;DHT22;16382;59.942;30.472;2023-03-20T14:31:29;13.30;91.20
29403;DHT22;16382;59.942;30.472;2023-03-20T14:34:23;12.90;92.90
29403;DHT22;16382;59.942;30.472;2023-03-20T14:36:56;12.60;94.50
29403;DHT22;16382;59.942;30.472;2023-03-20T14:39:44;12.40;96.30
29403;DHT22;16382;59.942;30.472;2023-03-20T14:42:27;12.20;98.60
29403;DHT22;16382;59.942;30.472;2023-03-20T14:45:34;12.20;99.90
29403;DHT22;16382;59.942;30.472;2023-03-20T14:48:10;12.10;99.90
29403;DHT22;16382;59.942;30.472;2023-03-20T14:50:53;12.10;99.90
29403;DHT22;16382;59.942;30.472;2023-03-20T14:53:32;12.10;99.90
29403;DHT22;16382;59.942;30.472;2023-03-20T14:56:08;12.10;99.90
29403;DHT22;16382;59.942;30.472;2023-03-20T14:58:50;12.00;99.90
29403;DHT22;16382;59.942;30.472;2023-03-20T15:01:25;12.00;99.90
29403;DHT22;16382;59.942;30.472;2023-03-20T15:03:56;11.90;99.90
29403;DHT22;16382;59.942;30.472;2023-03-20T15:06:27;11.80;99.90
29403;DHT22;16382;59.942;30.472;2023-03-20T15:08:58;11.80;99.90
29403;DHT22;16382;59.942;30.472;2023-03-20T15:11:27;11.70;99.90
29403;DHT22;16382;59.942;30.472;2023-03-20T15:13:57;11.80;99.90
29403;DHT22;16382;59.942;30.472;2023-03-20T15:16:27;11.70;99.90
29403;DHT22;16382;59.942;30.472;2023-03-20T15:18:56;11.70;99.90
29403;DHT22;16382;59.942;30.472;2023-03-20T15:21:28;11.70;99.90
29403;DHT22;16382;59.942;30.472;2023-03-20T15:24:00;11.60;99.90
29403;DHT22;16382;59.942;30.472;2023-03-20T15:26:29;11.70;99.90
29403;DHT22;16382;59.942;30.472;2023-03-20T15:29:02;11.60;99.90
29403;DHT22;16382;59.942;30.472;2023-03-20T15:31:32;11.60;99.90
29403;DHT22;16382;59.942;30.472;2023-03-20T15:34:02;11.60;99.90
29403;DHT22;16382;59.942;30.472;2023-03-20T15:36:33;11.60;99.90
29403;DHT22;16382;59.942;30.472;2023-03-20T15:39:12;11.60;99.90
29403;DHT22;16382;59.942;30.472;2023-03-20T15:41:44;11.50;99.90
29403;DHT22;16382;59.942;30.472;2023-03-20T15:44:20;11.50;99.90
29403;DHT22;16382;59.942;30.472;2023-03-20T15:47:00;11.40;99.90
29403;DHT22;16382;59.942;30.472;2023-03-20T15:49:30;11.30;99.90
29403;DHT22;16382;59.942;30.472;2023-03-20T15:52:01;11.30;99.90
29403;DHT22;16382;59.942;30.472;2023-03-20T15:54:31;11.30;99.90
29403;DHT22;16382;59.942;30.472;2023-03-20T15:56:59;11.30;99.90
29403;DHT22;16382;59.942;30.472;2023-03-20T15:59:31;11.30;99.90
29403;DHT22;16382;59.942;30.472;2023-03-20T16:02:00;11.30;99.90
29403;DHT22;16382;59.942;30.472;2023-03-20T16:04:28;11.20;99.90
29403;DHT22;16382;59.942;30.472;2023-03-20T16:06:57;11.20;99.90
29403;DHT22;16382;59.942;30.472;2023-03-20T16:09:27;11.10;99.90
29403;DHT22;16382;59.942;30.472;2023-03-20T16:11:57;11.00;99.90
29403;DHT22;16382;59.942;30.472;2023-03-20T16:14:27;10.90;99.90
29403;DHT22;16382;59.942;30.472;2023-03-20T16:16:59;10.80;99.90
29403;DHT22;16382;59.942;30.472;2023-03-20T16:19:57;10.80;99.90
29403;DHT22;16382;59.942;30.472;2023-03-20T16:22:32;10.70;99.90
29403;DHT22;16382;59.942;30.472;2023-03-20T16:25:00;10.70;99.90
29403;DHT22;16382;59.942;30.472;2023-03-20T16:27:32;10.70;99.90